sensor_id;sensor_type;location;lat;lon;timestamp;P1;durP1;ratioP1;P2;durP2;ratioP2
61150;SDS011;47029;50.994;2.876;2022-11-25T00:01:05;8.25;;;2.62;;
61150;SDS011;47029;50.994;2.876;2022-11-25T00:03:37;9.95;;;3.08;;
61150;SDS011;47029;50.994;2.876;2022-11-25T00:09:04;5.62;;;2.20;;
61150;SDS011;47029;50.994;2.876;2022-11-25T00:11:39;8.52;;;2.62;;
61150;SDS011;47029;50.994;2.876;2022-11-25T00:14:09;6.57;;;2.30;;
61150;SDS011;47029;50.994;2.876;2022-11-25T00:16:37;8.27;;;2.80;;
61150;SDS011;47029;50.994;2.876;2022-11-25T00:19:04;10.15;;;3.28;;
61150;SDS011;47029;50.994;2.876;2022-11-25T00:21:31;8.52;;;3.00;;
61150;SDS011;47029;50.994;2.876;2022-11-25T00:24:00;9.40;;;3.35;;
61150;SDS011;47029;50.994;2.876;2022-11-25T00:26:29;8.10;;;3.60;;
61150;SDS011;47029;50.994;2.876;2022-11-25T00:29:00;12.45;;;5.47;;
61150;SDS011;47029;50.994;2.876;2022-11-25T00:31:36;9.23;;;2.35;;
61150;SDS011;47029;50.994;2.876;2022-11-25T00:34:11;8.20;;;2.67;;
61150;SDS011;47029;50.994;2.876;2022-11-25T00:36:37;6.10;;;2.40;;
61150;SDS011;47029;50.994;2.876;2022-11-25T00:39:05;9.80;;;3.53;;
61150;SDS011;47029;50.994;2.876;2022-11-25T00:41:39;13.25;;;5.80;;
61150;SDS011;47029;50.994;2.876;2022-11-25T00:44:23;9.50;;;4.30;;
61150;SDS011;47029;50.994;2.876;2022-11-25T00:47:36;13.48;;;4.90;;
61150;SDS011;47029;50.994;2.876;2022-11-25T00:49:55;17.15;;;5.43;;
61150;SDS011;47029;50.994;2.876;2022-11-25T00:52:22;12.10;;;5.00;;
61150;SDS011;47029;50.994;2.876;2022-11-25T00:54:52;12.65;;;3.92;;
61150;SDS011;47029;50.994;2.876;2022-11-25T00:57:22;8.98;;;3.60;;
61150;SDS011;47029;50.994;2.876;2022-11-25T00:59:52;10.82;;;3.05;;
61150;SDS011;47029;50.994;2.876;2022-11-25T01:02:21;9.18;;;3.17;;
61150;SDS011;47029;50.994;2.876;2022-11-25T01:04:51;7.80;;;2.83;;
61150;SDS011;47029;50.994;2.876;2022-11-25T01:07:16;11.48;;;3.58;;
61150;SDS011;47029;50.994;2.876;2022-11-25T01:09:43;6.22;;;2.20;;
61150;SDS011;47029;50.994;2.876;2022-11-25T01:12:11;8.48;;;2.55;;
61150;SDS011;47029;50.994;2.876;2022-11-25T01:14:37;7.15;;;2.50;;
61150;SDS011;47029;50.994;2.876;2022-11-25T01:17:05;7.18;;;2.45;;
61150;SDS011;47029;50.994;2.876;2022-11-25T01:19:34;6.65;;;2.35;;
61150;SDS011;47029;50.994;2.876;2022-11-25T01:22:04;9.57;;;3.20;;
61150;SDS011;47029;50.994;2.876;2022-11-25T01:24:31;9.20;;;3.12;;
61150;SDS011;47029;50.994;2.876;2022-11-25T01:26:57;7.30;;;2.53;;
61150;SDS011;47029;50.994;2.876;2022-11-25T01:29:24;6.37;;;2.55;;
61150;SDS011;47029;50.994;2.876;2022-11-25T01:31:55;9.13;;;2.33;;
61150;SDS011;47029;50.994;2.876;2022-11-25T01:34:24;7.25;;;2.33;;
61150;SDS011;47029;50.994;2.876;2022-11-25T01:36:51;6.70;;;2.70;;
61150;SDS011;47029;50.994;2.876;2022-11-25T01:39:18;8.60;;;2.92;;
61150;SDS011;47029;50.994;2.876;2022-11-25T01:41:48;7.65;;;2.72;;
61150;SDS011;47029;50.994;2.876;2022-11-25T01:44:22;10.05;;;2.50;;
61150;SDS011;47029;50.994;2.876;2022-11-25T01:46:51;5.87;;;2.17;;
61150;SDS011;47029;50.994;2.876;2022-11-25T01:54:39;7.47;;;2.62;;
61150;SDS011;47029;50.994;2.876;2022-11-25T01:57:15;7.90;;;2.50;;
61150;SDS011;47029;50.994;2.876;2022-11-25T01:59:48;6.30;;;2.15;;
61150;SDS011;47029;50.994;2.876;2022-11-25T02:02:16;9.95;;;2.40;;
61150;SDS011;47029;50.994;2.876;2022-11-25T02:04:44;7.35;;;2.30;;
61150;SDS011;47029;50.994;2.876;2022-11-25T02:09:56;7.15;;;2.28;;
61150;SDS011;47029;50.994;2.876;2022-11-25T02:12:23;7.68;;;2.50;;
61150;SDS011;47029;50.994;2.876;2022-11-25T02:14:52;8.90;;;2.50;;
61150;SDS011;47029;50.994;2.876;2022-11-25T02:17:19;8.45;;;2.50;;
61150;SDS011;47029;50.994;2.876;2022-11-25T02:22:18;7.22;;;2.45;;
61150;SDS011;47029;50.994;2.876;2022-11-25T02:24:53;6.55;;;2.45;;
61150;SDS011;47029;50.994;2.876;2022-11-25T02:27:26;9.15;;;2.55;;
61150;SDS011;47029;50.994;2.876;2022-11-25T02:29:53;11.80;;;2.75;;
61150;SDS011;47029;50.994;2.876;2022-11-25T02:32:22;10.48;;;2.80;;
61150;SDS011;47029;50.994;2.876;2022-11-25T02:34:49;9.00;;;2.62;;
61150;SDS011;47029;50.994;2.876;2022-11-25T02:37:16;9.50;;;2.45;;
61150;SDS011;47029;50.994;2.876;2022-11-25T02:39:45;9.57;;;2.50;;
61150;SDS011;47029;50.994;2.876;2022-11-25T02:42:12;6.60;;;2.55;;
61150;SDS011;47029;50.994;2.876;2022-11-25T02:44:39;9.15;;;2.90;;
61150;SDS011;47029;50.994;2.876;2022-11-25T02:47:06;7.93;;;2.50;;
61150;SDS011;47029;50.994;2.876;2022-11-25T02:49:32;8.05;;;2.60;;
61150;SDS011;47029;50.994;2.876;2022-11-25T02:51:59;13.50;;;3.22;;
61150;SDS011;47029;50.994;2.876;2022-11-25T02:54:25;8.10;;;2.47;;
61150;SDS011;47029;50.994;2.876;2022-11-25T02:56:52;11.30;;;2.60;;
61150;SDS011;47029;50.994;2.876;2022-11-25T02:59:17;6.62;;;2.20;;
61150;SDS011;47029;50.994;2.876;2022-11-25T03:01:43;7.25;;;2.35;;
61150;SDS011;47029;50.994;2.876;2022-11-25T03:04:10;8.88;;;2.42;;
61150;SDS011;47029;50.994;2.876;2022-11-25T03:06:36;6.78;;;2.25;;
61150;SDS011;47029;50.994;2.876;2022-11-25T03:09:03;8.30;;;2.60;;
61150;SDS011;47029;50.994;2.876;2022-11-25T03:11:28;9.93;;;2.65;;
61150;SDS011;47029;50.994;2.876;2022-11-25T03:14:13;7.95;;;2.35;;
61150;SDS011;47029;50.994;2.876;2022-11-25T03:16:38;7.32;;;2.17;;
61150;SDS011;47029;50.994;2.876;2022-11-25T03:19:05;9.60;;;2.55;;
61150;SDS011;47029;50.994;2.876;2022-11-25T03:21:31;10.13;;;2.45;;
61150;SDS011;47029;50.994;2.876;2022-11-25T03:23:58;8.13;;;2.20;;
61150;SDS011;47029;50.994;2.876;2022-11-25T03:26:23;8.23;;;2.30;;
61150;SDS011;47029;50.994;2.876;2022-11-25T03:28:50;7.80;;;2.50;;
61150;SDS011;47029;50.994;2.876;2022-11-25T03:31:16;5.60;;;2.03;;
61150;SDS011;47029;50.994;2.876;2022-11-25T03:33:42;8.07;;;2.70;;
61150;SDS011;47029;50.994;2.876;2022-11-25T03:36:08;7.65;;;2.25;;
61150;SDS011;47029;50.994;2.876;2022-11-25T03:38:34;8.43;;;2.12;;
61150;SDS011;47029;50.994;2.876;2022-11-25T03:41:00;7.43;;;2.20;;
61150;SDS011;47029;50.994;2.876;2022-11-25T03:43:26;6.80;;;2.00;;
61150;SDS011;47029;50.994;2.876;2022-11-25T03:45:51;5.97;;;2.00;;
61150;SDS011;47029;50.994;2.876;2022-11-25T03:48:17;7.28;;;2.28;;
61150;SDS011;47029;50.994;2.876;2022-11-25T03:50:43;10.35;;;2.30;;
61150;SDS011;47029;50.994;2.876;2022-11-25T03:53:11;7.57;;;1.85;;
61150;SDS011;47029;50.994;2.876;2022-11-25T03:55:37;8.25;;;2.15;;
61150;SDS011;47029;50.994;2.876;2022-11-25T03:58:03;8.18;;;2.30;;
61150;SDS011;47029;50.994;2.876;2022-11-25T04:00:29;5.37;;;2.10;;
61150;SDS011;47029;50.994;2.876;2022-11-25T04:02:57;8.18;;;2.17;;
61150;SDS011;47029;50.994;2.876;2022-11-25T04:05:23;8.05;;;2.30;;
61150;SDS011;47029;50.994;2.876;2022-11-25T04:07:49;6.93;;;2.30;;
61150;SDS011;47029;50.994;2.876;2022-11-25T04:10:16;6.93;;;2.10;;
61150;SDS011;47029;50.994;2.876;2022-11-25T04:12:41;9.38;;;2.40;;
61150;SDS011;47029;50.994;2.876;2022-11-25T04:15:16;7.80;;;2.33;;
61150;SDS011;47029;50.994;2.876;2022-11-25T04:17:43;7.00;;;2.12;;
61150;SDS011;47029;50.994;2.876;2022-11-25T04:20:09;9.63;;;2.33;;
61150;SDS011;47029;50.994;2.876;2022-11-25T04:22:36;5.43;;;2.20;;
61150;SDS011;47029;50.994;2.876;2022-11-25T04:25:02;7.62;;;2.35;;
61150;SDS011;47029;50.994;2.876;2022-11-25T04:27:28;8.63;;;2.33;;
61150;SDS011;47029;50.994;2.876;2022-11-25T04:29:54;7.72;;;2.30;;
61150;SDS011;47029;50.994;2.876;2022-11-25T04:32:19;9.02;;;2.12;;
61150;SDS011;47029;50.994;2.876;2022-11-25T04:34:45;9.05;;;2.25;;
61150;SDS011;47029;50.994;2.876;2022-11-25T04:37:11;9.23;;;2.20;;
61150;SDS011;47029;50.994;2.876;2022-11-25T04:39:37;9.55;;;2.20;;
61150;SDS011;47029;50.994;2.876;2022-11-25T04:42:03;12.25;;;2.78;;
61150;SDS011;47029;50.994;2.876;2022-11-25T04:44:55;9.18;;;2.70;;
61150;SDS011;47029;50.994;2.876;2022-11-25T04:47:22;6.35;;;2.10;;
61150;SDS011;47029;50.994;2.876;2022-11-25T04:49:48;7.05;;;2.33;;
61150;SDS011;47029;50.994;2.876;2022-11-25T04:52:14;11.23;;;2.70;;
61150;SDS011;47029;50.994;2.876;2022-11-25T04:54:40;8.15;;;2.83;;
61150;SDS011;47029;50.994;2.876;2022-11-25T04:57:05;12.93;;;2.70;;
61150;SDS011;47029;50.994;2.876;2022-11-25T04:59:32;8.85;;;2.53;;
61150;SDS011;47029;50.994;2.876;2022-11-25T05:02:05;5.97;;;2.40;;
61150;SDS011;47029;50.994;2.876;2022-11-25T05:04:32;8.48;;;2.87;;
61150;SDS011;47029;50.994;2.876;2022-11-25T05:06:58;10.55;;;3.25;;
61150;SDS011;47029;50.994;2.876;2022-11-25T05:09:24;6.85;;;2.37;;
61150;SDS011;47029;50.994;2.876;2022-11-25T05:11:50;8.65;;;3.10;;
61150;SDS011;47029;50.994;2.876;2022-11-25T05:14:16;9.85;;;2.97;;
61150;SDS011;47029;50.994;2.876;2022-11-25T05:16:42;10.63;;;2.70;;
61150;SDS011;47029;50.994;2.876;2022-11-25T05:19:08;9.07;;;3.10;;
61150;SDS011;47029;50.994;2.876;2022-11-25T05:21:34;5.93;;;2.30;;
61150;SDS011;47029;50.994;2.876;2022-11-25T05:24:00;11.60;;;3.22;;
61150;SDS011;47029;50.994;2.876;2022-11-25T05:26:26;14.07;;;3.08;;
61150;SDS011;47029;50.994;2.876;2022-11-25T05:28:52;10.40;;;3.08;;
61150;SDS011;47029;50.994;2.876;2022-11-25T05:31:18;9.45;;;3.03;;
61150;SDS011;47029;50.994;2.876;2022-11-25T05:33:44;11.80;;;3.53;;
61150;SDS011;47029;50.994;2.876;2022-11-25T05:36:10;12.82;;;3.87;;
61150;SDS011;47029;50.994;2.876;2022-11-25T05:38:37;11.85;;;3.67;;
61150;SDS011;47029;50.994;2.876;2022-11-25T05:41:03;13.73;;;3.58;;
61150;SDS011;47029;50.994;2.876;2022-11-25T05:43:30;8.65;;;2.90;;
61150;SDS011;47029;50.994;2.876;2022-11-25T05:45:57;12.88;;;3.40;;
61150;SDS011;47029;50.994;2.876;2022-11-25T05:48:23;10.18;;;3.15;;
61150;SDS011;47029;50.994;2.876;2022-11-25T05:50:49;12.32;;;3.62;;
61150;SDS011;47029;50.994;2.876;2022-11-25T05:53:15;13.73;;;3.87;;
61150;SDS011;47029;50.994;2.876;2022-11-25T05:55:44;13.70;;;3.53;;
61150;SDS011;47029;50.994;2.876;2022-11-25T05:58:19;10.47;;;3.80;;
61150;SDS011;47029;50.994;2.876;2022-11-25T06:00:45;11.07;;;3.50;;
61150;SDS011;47029;50.994;2.876;2022-11-25T06:03:10;12.13;;;3.55;;
61150;SDS011;47029;50.994;2.876;2022-11-25T06:05:36;11.60;;;3.70;;
61150;SDS011;47029;50.994;2.876;2022-11-25T06:08:02;13.82;;;3.60;;
61150;SDS011;47029;50.994;2.876;2022-11-25T06:10:28;11.90;;;4.12;;
61150;SDS011;47029;50.994;2.876;2022-11-25T06:12:54;12.52;;;3.60;;
61150;SDS011;47029;50.994;2.876;2022-11-25T06:15:20;17.25;;;3.85;;
61150;SDS011;47029;50.994;2.876;2022-11-25T06:17:46;10.93;;;3.75;;
61150;SDS011;47029;50.994;2.876;2022-11-25T06:20:12;12.48;;;3.50;;
61150;SDS011;47029;50.994;2.876;2022-11-25T06:22:38;12.68;;;3.85;;
61150;SDS011;47029;50.994;2.876;2022-11-25T06:25:04;11.15;;;3.50;;
61150;SDS011;47029;50.994;2.876;2022-11-25T06:27:31;13.27;;;3.70;;
61150;SDS011;47029;50.994;2.876;2022-11-25T06:29:57;13.82;;;3.78;;
61150;SDS011;47029;50.994;2.876;2022-11-25T06:32:23;11.85;;;3.90;;
61150;SDS011;47029;50.994;2.876;2022-11-25T06:34:50;13.45;;;3.87;;
61150;SDS011;47029;50.994;2.876;2022-11-25T06:37:15;16.35;;;3.90;;
61150;SDS011;47029;50.994;2.876;2022-11-25T06:39:41;11.98;;;4.22;;
61150;SDS011;47029;50.994;2.876;2022-11-25T06:42:08;12.88;;;3.65;;
61150;SDS011;47029;50.994;2.876;2022-11-25T06:44:34;10.50;;;3.95;;
61150;SDS011;47029;50.994;2.876;2022-11-25T06:47:00;11.98;;;4.10;;
61150;SDS011;47029;50.994;2.876;2022-11-25T06:49:26;13.73;;;3.80;;
61150;SDS011;47029;50.994;2.876;2022-11-25T06:51:53;15.23;;;4.15;;
61150;SDS011;47029;50.994;2.876;2022-11-25T06:54:19;12.55;;;4.25;;
61150;SDS011;47029;50.994;2.876;2022-11-25T06:56:45;14.77;;;3.65;;
61150;SDS011;47029;50.994;2.876;2022-11-25T06:59:15;12.30;;;3.80;;
61150;SDS011;47029;50.994;2.876;2022-11-25T07:01:42;11.30;;;3.10;;
61150;SDS011;47029;50.994;2.876;2022-11-25T07:04:08;10.20;;;3.45;;
61150;SDS011;47029;50.994;2.876;2022-11-25T07:06:34;11.98;;;3.78;;
61150;SDS011;47029;50.994;2.876;2022-11-25T07:09:00;15.02;;;3.78;;
61150;SDS011;47029;50.994;2.876;2022-11-25T07:11:30;12.25;;;3.40;;
61150;SDS011;47029;50.994;2.876;2022-11-25T07:14:01;9.40;;;3.20;;
61150;SDS011;47029;50.994;2.876;2022-11-25T07:16:29;11.98;;;3.80;;
61150;SDS011;47029;50.994;2.876;2022-11-25T07:18:59;10.23;;;3.50;;
61150;SDS011;47029;50.994;2.876;2022-11-25T07:21:26;11.88;;;3.83;;
61150;SDS011;47029;50.994;2.876;2022-11-25T07:23:54;10.15;;;3.33;;
61150;SDS011;47029;50.994;2.876;2022-11-25T07:26:23;13.77;;;3.67;;
61150;SDS011;47029;50.994;2.876;2022-11-25T07:28:52;12.50;;;3.65;;
61150;SDS011;47029;50.994;2.876;2022-11-25T07:33:46;7.47;;;2.90;;
61150;SDS011;47029;50.994;2.876;2022-11-25T07:36:13;11.68;;;3.12;;
61150;SDS011;47029;50.994;2.876;2022-11-25T07:38:40;10.73;;;3.10;;
61150;SDS011;47029;50.994;2.876;2022-11-25T07:41:06;9.43;;;3.10;;
61150;SDS011;47029;50.994;2.876;2022-11-25T07:43:37;9.05;;;3.17;;
61150;SDS011;47029;50.994;2.876;2022-11-25T07:46:38;9.23;;;3.25;;
61150;SDS011;47029;50.994;2.876;2022-11-25T07:49:04;10.05;;;3.20;;
61150;SDS011;47029;50.994;2.876;2022-11-25T07:51:33;12.85;;;3.58;;
61150;SDS011;47029;50.994;2.876;2022-11-25T07:54:07;9.17;;;3.20;;
61150;SDS011;47029;50.994;2.876;2022-11-25T07:56:37;8.65;;;3.22;;
61150;SDS011;47029;50.994;2.876;2022-11-25T07:59:05;8.77;;;3.20;;
61150;SDS011;47029;50.994;2.876;2022-11-25T08:01:32;12.23;;;3.75;;
61150;SDS011;47029;50.994;2.876;2022-11-25T08:03:58;12.68;;;3.30;;
61150;SDS011;47029;50.994;2.876;2022-11-25T08:06:25;13.68;;;3.42;;
61150;SDS011;47029;50.994;2.876;2022-11-25T08:08:53;10.35;;;3.40;;
61150;SDS011;47029;50.994;2.876;2022-11-25T08:11:21;13.48;;;4.03;;
61150;SDS011;47029;50.994;2.876;2022-11-25T08:13:49;13.73;;;3.50;;
61150;SDS011;47029;50.994;2.876;2022-11-25T08:16:16;12.45;;;3.60;;
61150;SDS011;47029;50.994;2.876;2022-11-25T08:18:45;15.38;;;4.18;;
61150;SDS011;47029;50.994;2.876;2022-11-25T08:21:12;12.18;;;3.83;;
61150;SDS011;47029;50.994;2.876;2022-11-25T08:23:40;16.65;;;3.75;;
61150;SDS011;47029;50.994;2.876;2022-11-25T08:26:13;14.80;;;3.83;;
61150;SDS011;47029;50.994;2.876;2022-11-25T08:28:44;15.90;;;3.70;;
61150;SDS011;47029;50.994;2.876;2022-11-25T08:31:12;19.33;;;4.62;;
61150;SDS011;47029;50.994;2.876;2022-11-25T08:33:46;11.48;;;4.20;;
61150;SDS011;47029;50.994;2.876;2022-11-25T08:36:19;9.82;;;3.47;;
61150;SDS011;47029;50.994;2.876;2022-11-25T08:38:45;12.77;;;3.58;;
61150;SDS011;47029;50.994;2.876;2022-11-25T08:41:20;12.65;;;3.90;;
61150;SDS011;47029;50.994;2.876;2022-11-25T08:43:53;13.73;;;3.90;;
61150;SDS011;47029;50.994;2.876;2022-11-25T08:46:25;13.57;;;4.22;;
61150;SDS011;47029;50.994;2.876;2022-11-25T08:48:52;13.95;;;4.25;;
61150;SDS011;47029;50.994;2.876;2022-11-25T08:51:19;10.88;;;3.92;;
61150;SDS011;47029;50.994;2.876;2022-11-25T08:53:51;12.85;;;4.20;;
61150;SDS011;47029;50.994;2.876;2022-11-25T08:56:21;14.35;;;4.57;;
61150;SDS011;47029;50.994;2.876;2022-11-25T08:58:48;16.73;;;4.00;;
61150;SDS011;47029;50.994;2.876;2022-11-25T09:01:17;13.80;;;3.75;;
61150;SDS011;47029;50.994;2.876;2022-11-25T09:03:48;12.10;;;4.30;;
61150;SDS011;47029;50.994;2.876;2022-11-25T09:06:19;15.70;;;4.30;;
61150;SDS011;47029;50.994;2.876;2022-11-25T09:08:45;16.80;;;4.37;;
61150;SDS011;47029;50.994;2.876;2022-11-25T09:11:11;14.73;;;4.55;;
61150;SDS011;47029;50.994;2.876;2022-11-25T09:13:37;14.73;;;4.00;;
61150;SDS011;47029;50.994;2.876;2022-11-25T09:16:08;13.98;;;4.18;;
61150;SDS011;47029;50.994;2.876;2022-11-25T09:18:36;15.27;;;4.40;;
61150;SDS011;47029;50.994;2.876;2022-11-25T09:21:09;12.37;;;4.20;;
61150;SDS011;47029;50.994;2.876;2022-11-25T09:23:38;18.25;;;4.30;;
61150;SDS011;47029;50.994;2.876;2022-11-25T09:26:09;19.37;;;4.70;;
61150;SDS011;47029;50.994;2.876;2022-11-25T09:28:46;16.98;;;4.93;;
61150;SDS011;47029;50.994;2.876;2022-11-25T09:31:14;15.60;;;4.68;;
61150;SDS011;47029;50.994;2.876;2022-11-25T09:33:41;16.90;;;4.07;;
61150;SDS011;47029;50.994;2.876;2022-11-25T09:36:10;12.93;;;4.15;;
61150;SDS011;47029;50.994;2.876;2022-11-25T09:38:37;15.00;;;5.00;;
61150;SDS011;47029;50.994;2.876;2022-11-25T09:44:05;14.50;;;4.05;;
61150;SDS011;47029;50.994;2.876;2022-11-25T09:47:12;13.05;;;3.92;;
61150;SDS011;47029;50.994;2.876;2022-11-25T09:54:54;9.95;;;3.05;;
61150;SDS011;47029;50.994;2.876;2022-11-25T09:57:35;14.38;;;3.50;;
61150;SDS011;47029;50.994;2.876;2022-11-25T10:00:47;13.55;;;3.30;;
61150;SDS011;47029;50.994;2.876;2022-11-25T10:03:17;14.55;;;3.25;;
61150;SDS011;47029;50.994;2.876;2022-11-25T10:08:56;11.55;;;3.20;;
61150;SDS011;47029;50.994;2.876;2022-11-25T10:14:50;10.45;;;3.33;;
61150;SDS011;47029;50.994;2.876;2022-11-25T10:17:32;10.38;;;3.17;;
61150;SDS011;47029;50.994;2.876;2022-11-25T10:20:16;15.90;;;3.67;;
61150;SDS011;47029;50.994;2.876;2022-11-25T10:22:56;14.43;;;3.80;;
61150;SDS011;47029;50.994;2.876;2022-11-25T10:25:37;13.32;;;3.60;;
61150;SDS011;47029;50.994;2.876;2022-11-25T10:28:16;12.23;;;3.45;;
61150;SDS011;47029;50.994;2.876;2022-11-25T10:33:18;13.07;;;3.62;;
61150;SDS011;47029;50.994;2.876;2022-11-25T10:35:54;11.25;;;3.00;;
61150;SDS011;47029;50.994;2.876;2022-11-25T10:41:14;14.40;;;3.45;;
61150;SDS011;47029;50.994;2.876;2022-11-25T10:43:51;12.43;;;3.83;;
61150;SDS011;47029;50.994;2.876;2022-11-25T10:49:06;18.05;;;4.62;;
61150;SDS011;47029;50.994;2.876;2022-11-25T10:51:49;14.20;;;3.55;;
61150;SDS011;47029;50.994;2.876;2022-11-25T10:54:20;15.32;;;3.78;;
61150;SDS011;47029;50.994;2.876;2022-11-25T10:56:49;13.82;;;3.55;;
61150;SDS011;47029;50.994;2.876;2022-11-25T10:59:31;14.52;;;4.10;;
61150;SDS011;47029;50.994;2.876;2022-11-25T11:07:18;18.17;;;3.75;;
61150;SDS011;47029;50.994;2.876;2022-11-25T11:09:45;11.90;;;3.90;;
61150;SDS011;47029;50.994;2.876;2022-11-25T11:14:39;13.73;;;3.80;;
61150;SDS011;47029;50.994;2.876;2022-11-25T11:17:19;13.02;;;3.92;;
61150;SDS011;47029;50.994;2.876;2022-11-25T11:22:59;12.73;;;3.97;;
61150;SDS011;47029;50.994;2.876;2022-11-25T11:25:31;18.85;;;4.00;;
61150;SDS011;47029;50.994;2.876;2022-11-25T11:28:01;15.80;;;4.30;;
61150;SDS011;47029;50.994;2.876;2022-11-25T11:31:31;13.70;;;4.00;;
61150;SDS011;47029;50.994;2.876;2022-11-25T11:45:48;15.23;;;4.32;;
61150;SDS011;47029;50.994;2.876;2022-11-25T11:48:39;16.83;;;4.37;;
61150;SDS011;47029;50.994;2.876;2022-11-25T11:54:35;16.17;;;3.97;;
61150;SDS011;47029;50.994;2.876;2022-11-25T11:57:06;14.90;;;4.35;;
61150;SDS011;47029;50.994;2.876;2022-11-25T11:59:40;17.33;;;4.10;;
61150;SDS011;47029;50.994;2.876;2022-11-25T12:02:39;13.93;;;4.50;;
61150;SDS011;47029;50.994;2.876;2022-11-25T12:15:48;16.80;;;3.67;;
61150;SDS011;47029;50.994;2.876;2022-11-25T12:21:05;20.15;;;4.00;;
61150;SDS011;47029;50.994;2.876;2022-11-25T12:23:40;16.95;;;3.92;;
61150;SDS011;47029;50.994;2.876;2022-11-25T12:26:14;16.30;;;4.20;;
61150;SDS011;47029;50.994;2.876;2022-11-25T12:28:48;14.60;;;3.90;;
61150;SDS011;47029;50.994;2.876;2022-11-25T12:31:41;18.12;;;3.83;;
61150;SDS011;47029;50.994;2.876;2022-11-25T12:34:16;15.93;;;4.10;;
61150;SDS011;47029;50.994;2.876;2022-11-25T12:36:54;15.10;;;4.22;;
61150;SDS011;47029;50.994;2.876;2022-11-25T12:39:33;20.52;;;4.80;;
61150;SDS011;47029;50.994;2.876;2022-11-25T12:42:19;13.27;;;4.00;;
61150;SDS011;47029;50.994;2.876;2022-11-25T12:47:15;17.85;;;3.90;;
61150;SDS011;47029;50.994;2.876;2022-11-25T12:49:46;17.52;;;4.03;;
61150;SDS011;47029;50.994;2.876;2022-11-25T13:00:32;14.35;;;3.95;;
61150;SDS011;47029;50.994;2.876;2022-11-25T13:06:15;13.90;;;4.10;;
61150;SDS011;47029;50.994;2.876;2022-11-25T13:14:52;13.00;;;3.87;;
61150;SDS011;47029;50.994;2.876;2022-11-25T13:17:26;11.23;;;3.58;;
61150;SDS011;47029;50.994;2.876;2022-11-25T13:20:38;13.25;;;3.42;;
61150;SDS011;47029;50.994;2.876;2022-11-25T13:23:37;14.38;;;3.72;;
61150;SDS011;47029;50.994;2.876;2022-11-25T13:25:42;13.62;;;3.75;;
61150;SDS011;47029;50.994;2.876;2022-11-25T13:28:32;11.48;;;3.50;;
61150;SDS011;47029;50.994;2.876;2022-11-25T13:34:07;13.65;;;3.80;;
61150;SDS011;47029;50.994;2.876;2022-11-25T13:36:49;15.70;;;4.43;;
61150;SDS011;47029;50.994;2.876;2022-11-25T13:39:38;13.13;;;3.67;;
61150;SDS011;47029;50.994;2.876;2022-11-25T13:44:30;11.65;;;3.60;;
61150;SDS011;47029;50.994;2.876;2022-11-25T13:49:53;13.25;;;4.12;;
61150;SDS011;47029;50.994;2.876;2022-11-25T13:52:34;15.25;;;3.87;;
61150;SDS011;47029;50.994;2.876;2022-11-25T13:55:09;13.98;;;3.50;;
61150;SDS011;47029;50.994;2.876;2022-11-25T13:57:59;16.92;;;4.15;;
61150;SDS011;47029;50.994;2.876;2022-11-25T14:11:30;14.70;;;4.12;;
61150;SDS011;47029;50.994;2.876;2022-11-25T14:26:50;20.92;;;4.20;;
61150;SDS011;47029;50.994;2.876;2022-11-25T14:29:19;11.68;;;3.55;;
61150;SDS011;47029;50.994;2.876;2022-11-25T14:31:50;15.23;;;4.10;;
61150;SDS011;47029;50.994;2.876;2022-11-25T14:34:21;11.00;;;3.15;;
61150;SDS011;47029;50.994;2.876;2022-11-25T14:40:02;13.27;;;3.65;;
61150;SDS011;47029;50.994;2.876;2022-11-25T14:42:35;14.02;;;3.30;;
61150;SDS011;47029;50.994;2.876;2022-11-25T14:45:02;11.55;;;3.65;;
61150;SDS011;47029;50.994;2.876;2022-11-25T14:47:47;14.23;;;3.40;;
61150;SDS011;47029;50.994;2.876;2022-11-25T14:50:14;13.50;;;4.10;;
61150;SDS011;47029;50.994;2.876;2022-11-25T14:52:40;28.98;;;11.90;;
61150;SDS011;47029;50.994;2.876;2022-11-25T14:55:11;18.42;;;7.20;;
61150;SDS011;47029;50.994;2.876;2022-11-25T14:57:47;16.17;;;4.20;;
61150;SDS011;47029;50.994;2.876;2022-11-25T15:00:14;11.40;;;3.90;;
61150;SDS011;47029;50.994;2.876;2022-11-25T15:02:58;11.18;;;3.28;;
61150;SDS011;47029;50.994;2.876;2022-11-25T15:05:33;13.62;;;3.65;;
61150;SDS011;47029;50.994;2.876;2022-11-25T15:08:02;16.48;;;4.20;;
61150;SDS011;47029;50.994;2.876;2022-11-25T15:10:32;14.95;;;3.72;;
61150;SDS011;47029;50.994;2.876;2022-11-25T15:15:45;13.62;;;3.03;;
61150;SDS011;47029;50.994;2.876;2022-11-25T15:18:15;13.73;;;3.40;;
61150;SDS011;47029;50.994;2.876;2022-11-25T15:20:48;11.25;;;3.55;;
61150;SDS011;47029;50.994;2.876;2022-11-25T15:23:27;14.80;;;3.85;;
61150;SDS011;47029;50.994;2.876;2022-11-25T15:25:58;17.37;;;4.35;;
61150;SDS011;47029;50.994;2.876;2022-11-25T15:28:26;13.02;;;3.22;;
61150;SDS011;47029;50.994;2.876;2022-11-25T15:31:01;12.15;;;3.20;;
61150;SDS011;47029;50.994;2.876;2022-11-25T15:33:32;11.03;;;3.63;;
61150;SDS011;47029;50.994;2.876;2022-11-25T15:35:58;14.50;;;3.47;;
61150;SDS011;47029;50.994;2.876;2022-11-25T15:41:01;11.52;;;3.58;;
61150;SDS011;47029;50.994;2.876;2022-11-25T15:43:28;14.70;;;3.90;;
61150;SDS011;47029;50.994;2.876;2022-11-25T15:45:56;13.82;;;3.40;;
61150;SDS011;47029;50.994;2.876;2022-11-25T15:48:26;12.02;;;3.28;;
61150;SDS011;47029;50.994;2.876;2022-11-25T15:51:00;13.40;;;3.83;;
61150;SDS011;47029;50.994;2.876;2022-11-25T15:53:29;11.00;;;4.00;;
61150;SDS011;47029;50.994;2.876;2022-11-25T15:56:00;13.52;;;3.97;;
61150;SDS011;47029;50.994;2.876;2022-11-25T15:58:27;11.30;;;3.60;;
61150;SDS011;47029;50.994;2.876;2022-11-25T16:01:00;13.70;;;5.22;;
61150;SDS011;47029;50.994;2.876;2022-11-25T16:03:28;25.20;;;10.48;;
61150;SDS011;47029;50.994;2.876;2022-11-25T16:05:57;28.10;;;14.25;;
61150;SDS011;47029;50.994;2.876;2022-11-25T16:08:31;29.25;;;12.85;;
61150;SDS011;47029;50.994;2.876;2022-11-25T16:11:11;23.48;;;10.32;;
61150;SDS011;47029;50.994;2.876;2022-11-25T16:13:40;25.62;;;12.32;;
61150;SDS011;47029;50.994;2.876;2022-11-25T16:16:16;18.10;;;8.00;;
61150;SDS011;47029;50.994;2.876;2022-11-25T16:19:04;19.67;;;8.98;;
61150;SDS011;47029;50.994;2.876;2022-11-25T16:21:40;18.37;;;7.32;;
61150;SDS011;47029;50.994;2.876;2022-11-25T16:29:48;13.90;;;3.80;;
61150;SDS011;47029;50.994;2.876;2022-11-25T16:32:22;15.15;;;3.70;;
61150;SDS011;47029;50.994;2.876;2022-11-25T16:34:49;15.57;;;4.30;;
61150;SDS011;47029;50.994;2.876;2022-11-25T16:37:20;19.12;;;5.68;;
61150;SDS011;47029;50.994;2.876;2022-11-25T16:39:50;21.10;;;6.60;;
61150;SDS011;47029;50.994;2.876;2022-11-25T16:42:20;33.90;;;13.02;;
61150;SDS011;47029;50.994;2.876;2022-11-25T16:44:50;43.20;;;16.62;;
61150;SDS011;47029;50.994;2.876;2022-11-25T16:47:20;31.95;;;13.32;;
61150;SDS011;47029;50.994;2.876;2022-11-25T16:49:46;27.42;;;13.32;;
61150;SDS011;47029;50.994;2.876;2022-11-25T16:52:13;27.20;;;13.75;;
61150;SDS011;47029;50.994;2.876;2022-11-25T16:54:42;20.15;;;9.68;;
61150;SDS011;47029;50.994;2.876;2022-11-25T16:57:16;21.52;;;7.97;;
61150;SDS011;47029;50.994;2.876;2022-11-25T16:59:44;16.52;;;6.85;;
61150;SDS011;47029;50.994;2.876;2022-11-25T17:02:15;15.35;;;7.12;;
61150;SDS011;47029;50.994;2.876;2022-11-25T17:04:46;14.85;;;6.12;;
61150;SDS011;47029;50.994;2.876;2022-11-25T17:07:16;20.58;;;8.15;;
61150;SDS011;47029;50.994;2.876;2022-11-25T17:09:43;13.70;;;5.55;;
61150;SDS011;47029;50.994;2.876;2022-11-25T17:12:17;17.37;;;5.65;;
61150;SDS011;47029;50.994;2.876;2022-11-25T17:14:50;15.10;;;5.03;;
61150;SDS011;47029;50.994;2.876;2022-11-25T17:17:19;17.98;;;5.37;;
61150;SDS011;47029;50.994;2.876;2022-11-25T17:19:50;12.93;;;4.53;;
61150;SDS011;47029;50.994;2.876;2022-11-25T17:22:18;17.40;;;5.20;;